createdAt,value
2017-12-30T00:01:13.851Z,96031.50
2017-12-30T00:03:41.632Z,96036.44
2017-12-30T00:06:09.294Z,96033.50
2017-12-30T00:08:37.001Z,96033.75
2017-12-30T00:11:04.687Z,96039.46
2017-12-30T00:13:32.333Z,96031.83
2017-12-30T00:16:00.040Z,96036.75
2017-12-30T00:18:27.734Z,96034.92
2017-12-30T00:20:55.329Z,96037.07
2017-12-30T00:23:23.899Z,96045.92
2017-12-30T00:25:52.039Z,96039.38
2017-12-30T00:28:19.665Z,96043.34
2017-12-30T00:30:47.439Z,96044.75
2017-12-30T00:33:15.056Z,96044.05
2017-12-30T00:35:42.795Z,96058.34
2017-12-30T00:38:12.788Z,96050.53
2017-12-30T00:40:40.374Z,96060.48
2017-12-30T00:43:07.974Z,96066.42
2017-12-30T00:45:35.620Z,96067.36
2017-12-30T00:48:03.291Z,96073.14
2017-12-30T00:50:30.913Z,96076.94
2017-12-30T00:52:58.570Z,96078.22
2017-12-30T00:55:26.217Z,96085.37
2017-12-30T00:57:55.771Z,96082.98
2017-12-30T01:00:23.432Z,96094.35
2017-12-30T01:02:51.047Z,96104.23
2017-12-30T01:05:18.694Z,96108.52
2017-12-30T01:07:46.363Z,96111.81
2017-12-30T01:10:13.966Z,96115.13
2017-12-30T01:12:41.619Z,96118.95
2017-12-30T01:15:09.252Z,96125.75
2017-12-30T01:17:39.876Z,96134.12
2017-12-30T01:20:09.861Z,96138.66
2017-12-30T01:22:37.615Z,96141.55
2017-12-30T01:25:05.266Z,96140.33
2017-12-30T01:27:32.934Z,96141.12
2017-12-30T01:30:01.308Z,96143.30
2017-12-30T01:32:31.005Z,96149.67
2017-12-30T01:35:00.306Z,96149.28
2017-12-30T01:37:27.992Z,96154.25
2017-12-30T01:39:55.628Z,96155.03
2017-12-30T01:42:23.239Z,96160.86
2017-12-30T01:44:50.878Z,96160.03
2017-12-30T01:47:20.096Z,96160.81
2017-12-30T01:49:47.754Z,96167.54
2017-12-30T01:52:15.495Z,96161.75
2017-12-30T01:54:43.093Z,96170.55
2017-12-30T01:57:10.731Z,96170.58
2017-12-30T01:59:38.462Z,96175.52
2017-12-30T02:02:06.086Z,96182.27
2017-12-30T02:04:33.716Z,96186.02
2017-12-30T02:07:01.361Z,96185.95
2017-12-30T02:09:29.012Z,96193.42
2017-12-30T02:11:59.262Z,96205.89
2017-12-30T02:14:26.916Z,96214.25
2017-12-30T02:16:54.832Z,96202.53
2017-12-30T02:19:22.455Z,96205.45
2017-12-30T02:21:50.062Z,96210.03
2017-12-30T02:24:20.606Z,96213.73
2017-12-30T02:26:48.260Z,96212.87
2017-12-30T02:29:16.343Z,96220.39
2017-12-30T02:31:43.942Z,96211.23
2017-12-30T02:34:11.641Z,96205.84
2017-12-30T02:36:39.265Z,96199.59
2017-12-30T02:39:07.052Z,96202.17
2017-12-30T02:41:34.693Z,96219.02
2017-12-30T02:44:02.308Z,96201.04
2017-12-30T02:46:32.665Z,96214.48
2017-12-30T02:49:00.326Z,96222.86
2017-12-30T02:51:28.694Z,96222.93
2017-12-30T02:53:56.504Z,96222.23
2017-12-30T02:56:24.102Z,96227.20
2017-12-30T02:58:51.714Z,96224.38
2017-12-30T03:01:19.396Z,96232.23
2017-12-30T03:03:47.024Z,96229.73
2017-12-30T03:06:14.658Z,96235.09
2017-12-30T03:08:42.276Z,96232.16
2017-12-30T03:11:09.874Z,96235.91
2017-12-30T03:13:39.218Z,96247.61
2017-12-30T03:16:06.901Z,96238.41
2017-12-30T03:18:34.468Z,96245.06
2017-12-30T03:21:02.162Z,96236.34
2017-12-30T03:23:29.788Z,96233.53
2017-12-30T03:25:57.404Z,96235.17
2017-12-30T03:28:26.906Z,96225.52
2017-12-30T03:30:54.537Z,96235.17
2017-12-30T03:33:22.124Z,96237.63
2017-12-30T03:35:49.776Z,96238.10
2017-12-30T03:38:17.454Z,96238.49
2017-12-30T03:40:46.660Z,96241.38
2017-12-30T03:43:14.644Z,96250.19
2017-12-30T03:45:42.230Z,96245.61
2017-12-30T03:48:09.820Z,96240.22
2017-12-30T03:50:37.485Z,96246.91
2017-12-30T03:53:05.142Z,96245.18
2017-12-30T03:55:33.138Z,96246.00
2017-12-30T03:58:00.736Z,96244.28
2017-12-30T04:00:28.320Z,96243.03
2017-12-30T04:02:55.926Z,96239.27
2017-12-30T04:05:23.638Z,96242.21
2017-12-30T04:07:51.304Z,96245.66
2017-12-30T04:10:18.880Z,96248.70
2017-12-30T04:12:48.702Z,96243.30
2017-12-30T04:15:16.310Z,96236.53
2017-12-30T04:17:43.930Z,96247.02
2017-12-30T04:20:11.736Z,96247.05
2017-12-30T04:22:40.960Z,96239.08
2017-12-30T04:25:08.614Z,96246.59
2017-12-30T04:27:37.107Z,96244.55
2017-12-30T04:30:04.733Z,96250.89
2017-12-30T04:32:33.965Z,96244.16
2017-12-30T04:35:04.252Z,96240.02
2017-12-30T04:37:33.078Z,96254.21
2017-12-30T04:40:00.754Z,96253.35
2017-12-30T04:42:30.113Z,96261.68
2017-12-30T04:44:57.769Z,96258.36
2017-12-30T04:47:25.967Z,96255.81
2017-12-30T04:49:53.594Z,96256.60
2017-12-30T04:52:21.528Z,96260.82
2017-12-30T04:54:49.249Z,96261.25
2017-12-30T04:57:16.854Z,96267.52
2017-12-30T04:59:44.715Z,96256.24
2017-12-30T05:02:12.421Z,96257.73
2017-12-30T05:04:40.120Z,96265.67
2017-12-30T05:07:07.732Z,96264.38
2017-12-30T05:09:36.101Z,96265.08
2017-12-30T05:12:04.031Z,96267.07
2017-12-30T05:14:31.621Z,96267.86
2017-12-30T05:16:59.269Z,96262.81
2017-12-30T05:19:26.891Z,96267.73
2017-12-30T05:21:54.486Z,96265.92
2017-12-30T05:24:22.133Z,96257.48
2017-12-30T05:26:49.749Z,96267.41
2017-12-30T05:29:17.351Z,96266.47
2017-12-30T05:31:45.010Z,96261.77
2017-12-30T05:34:12.643Z,96266.22
2017-12-30T05:36:40.431Z,96263.20
2017-12-30T05:39:08.015Z,96265.11
2017-12-30T05:41:35.662Z,96265.10
2017-12-30T05:44:03.648Z,96267.48
2017-12-30T05:46:31.251Z,96276.96
2017-12-30T05:48:58.949Z,96273.95
2017-12-30T05:51:26.650Z,96276.75
2017-12-30T05:53:54.214Z,96277.91
2017-12-30T05:56:21.866Z,96282.41
2017-12-30T05:58:49.459Z,96279.86
2017-12-30T06:01:17.111Z,96271.49
2017-12-30T06:03:44.741Z,96275.98
2017-12-30T06:06:12.462Z,96285.45
2017-12-30T06:08:40.081Z,96277.05
2017-12-30T06:11:09.573Z,96280.76
2017-12-30T06:13:39.828Z,96276.53
2017-12-30T06:16:07.535Z,96286.10
2017-12-30T06:18:35.171Z,96288.22
2017-12-30T06:21:02.774Z,96280.32
2017-12-30T06:23:30.393Z,96283.65
2017-12-30T06:25:58.069Z,96286.19
2017-12-30T06:28:25.706Z,96286.58
2017-12-30T06:30:53.277Z,96289.46
2017-12-30T06:33:20.880Z,96286.88
2017-12-30T06:35:48.531Z,96280.58
2017-12-30T06:38:16.216Z,96267.61
2017-12-30T06:40:43.987Z,96267.52
2017-12-30T06:43:11.577Z,96272.44
2017-12-30T06:45:39.206Z,96269.47
2017-12-30T06:48:08.619Z,96267.73
2017-12-30T06:50:36.305Z,96277.20
2017-12-30T06:53:04.200Z,96282.13
2017-12-30T06:55:31.865Z,96277.03
2017-12-30T06:57:59.449Z,96279.88
2017-12-30T07:00:27.282Z,96270.61
2017-12-30T07:02:54.987Z,96278.87
2017-12-30T07:05:23.549Z,96275.89
2017-12-30T07:07:51.189Z,96278.40
2017-12-30T07:10:19.030Z,96278.05
2017-12-30T07:12:46.633Z,96273.97
2017-12-30T07:15:14.267Z,96271.52
2017-12-30T07:17:43.495Z,96271.99
2017-12-30T07:20:11.143Z,96267.42
2017-12-30T07:22:38.787Z,96267.85
2017-12-30T07:25:06.519Z,96266.13
2017-12-30T07:27:34.169Z,96269.44
2017-12-30T07:30:01.844Z,96260.22
2017-12-30T07:32:29.545Z,96262.25
2017-12-30T07:34:57.193Z,96256.38
2017-12-30T07:37:24.805Z,96254.23
2017-12-30T07:39:52.405Z,96257.93
2017-12-30T07:42:20.051Z,96250.87
2017-12-30T07:44:47.637Z,96248.89
2017-12-30T07:47:17.499Z,96258.11
2017-12-30T07:49:45.233Z,96265.31
2017-12-30T07:52:12.855Z,96269.71
2017-12-30T07:54:40.475Z,96262.39
2017-12-30T07:57:08.129Z,96267.23
2017-12-30T07:59:35.747Z,96263.31
2017-12-30T08:02:03.577Z,96264.72
2017-12-30T08:04:31.356Z,96265.20
2017-12-30T08:07:00.199Z,96263.99
2017-12-30T08:09:29.625Z,96261.55
2017-12-30T08:11:59.483Z,96270.80
2017-12-30T08:14:27.291Z,96278.00
2017-12-30T08:16:54.929Z,96278.39
2017-12-30T08:19:22.567Z,96283.00
2017-12-30T08:21:50.306Z,96288.05
2017-12-30T08:24:18.039Z,96291.84
2017-12-30T08:26:45.812Z,96289.47
2017-12-30T08:29:13.473Z,96289.51
2017-12-30T08:31:41.144Z,96295.08
2017-12-30T08:34:08.898Z,96284.33
2017-12-30T08:36:36.594Z,96283.52
2017-12-30T08:39:04.393Z,96281.02
2017-12-30T08:41:32.037Z,96258.94
2017-12-30T08:44:01.590Z,96248.94
2017-12-30T08:46:29.998Z,96243.93
2017-12-30T08:48:57.773Z,96239.83
2017-12-30T08:51:25.488Z,96259.02
2017-12-30T08:53:53.195Z,96274.84
2017-12-30T08:56:20.865Z,96270.28
2017-12-30T08:58:48.536Z,96271.64
2017-12-30T09:01:16.159Z,96269.19
2017-12-30T09:03:43.772Z,96266.69
2017-12-30T09:06:11.386Z,96262.94
2017-12-30T09:08:39.016Z,96260.91
2017-12-30T09:11:06.632Z,96252.23
2017-12-30T09:13:34.752Z,96249.90
2017-12-30T09:16:02.473Z,96249.78
2017-12-30T09:18:30.144Z,96255.93
2017-12-30T09:20:57.789Z,96247.45
2017-12-30T09:23:25.422Z,96258.95
2017-12-30T09:25:53.125Z,96238.41
2017-12-30T09:28:20.749Z,96236.13
2017-12-30T09:30:48.399Z,96233.27
2017-12-30T09:33:16.056Z,96222.58
2017-12-30T09:35:43.720Z,96221.94
2017-12-30T09:38:11.464Z,96217.94
2017-12-30T09:40:39.172Z,96220.12
2017-12-30T09:43:06.793Z,96217.65
2017-12-30T09:45:35.186Z,96226.13
2017-12-30T09:48:04.673Z,96216.58
2017-12-30T09:50:33.922Z,96212.96
2017-12-30T09:53:02.421Z,96220.19
2017-12-30T09:55:31.013Z,96216.96
2017-12-30T09:57:58.664Z,96212.02
2017-12-30T10:00:28.029Z,96206.58
2017-12-30T10:02:55.718Z,96197.78
2017-12-30T10:05:23.374Z,96191.12
2017-12-30T10:07:51.128Z,96181.56
2017-12-30T10:10:18.760Z,96166.16
2017-12-30T10:12:49.055Z,96176.35
2017-12-30T10:15:16.796Z,96173.02
2017-12-30T10:17:45.182Z,96162.11
2017-12-30T10:20:14.630Z,96161.61
2017-12-30T10:22:42.352Z,96171.20
2017-12-30T10:25:10.044Z,96161.55
2017-12-30T10:27:37.674Z,96159.66
2017-12-30T10:30:05.334Z,96152.61
2017-12-30T10:32:33.131Z,96155.51
2017-12-30T10:35:01.726Z,96149.64
2017-12-30T10:37:29.590Z,96141.16
2017-12-30T10:39:58.942Z,96138.06
2017-12-30T10:42:26.614Z,96135.42
2017-12-30T10:44:56.881Z,96134.95
2017-12-30T10:47:24.526Z,96128.98
2017-12-30T10:49:52.234Z,96121.05
2017-12-30T10:52:19.954Z,96120.55
2017-12-30T10:54:47.654Z,96116.79
2017-12-30T10:57:16.033Z,96112.97
2017-12-30T10:59:43.683Z,96112.11
2017-12-30T11:02:11.292Z,96094.84
2017-12-30T11:04:38.981Z,96091.05
2017-12-30T11:07:06.687Z,96091.97
2017-12-30T11:09:34.316Z,96092.14
2017-12-30T11:12:02.000Z,96091.35
2017-12-30T11:14:29.648Z,96085.95
2017-12-30T11:16:57.369Z,96074.25
2017-12-30T11:19:25.168Z,96083.48
2017-12-30T11:21:52.814Z,96066.73
2017-12-30T11:24:20.506Z,96057.94
2017-12-30T11:26:50.222Z,96047.98
2017-12-30T11:29:17.894Z,96042.98
2017-12-30T11:31:47.350Z,96042.48
2017-12-30T11:34:15.154Z,96041.66
2017-12-30T11:36:42.918Z,96027.19
2017-12-30T11:39:10.526Z,96020.14
2017-12-30T11:41:38.238Z,96012.20
2017-12-30T11:44:05.922Z,96000.56
2017-12-30T11:46:33.554Z,95993.77
2017-12-30T11:49:01.210Z,95996.22
2017-12-30T11:51:29.935Z,95995.39
2017-12-30T11:53:57.631Z,95979.91
2017-12-30T11:56:25.322Z,95973.25
2017-12-30T11:58:52.974Z,95976.24
2017-12-30T12:01:20.661Z,95964.91
2017-12-30T12:03:48.764Z,95958.25
2017-12-30T12:06:16.490Z,95938.55
2017-12-30T12:08:44.092Z,95940.59
2017-12-30T12:11:11.938Z,95946.37
2017-12-30T12:13:39.704Z,95944.78
2017-12-30T12:16:07.440Z,95937.55
2017-12-30T12:18:35.048Z,95940.94
2017-12-30T12:21:02.698Z,95955.17
2017-12-30T12:23:30.346Z,95962.28
2017-12-30T12:25:58.930Z,95955.99
2017-12-30T12:28:30.443Z,95945.85
2017-12-30T12:30:58.560Z,95941.64
2017-12-30T12:33:26.174Z,95946.22
2017-12-30T12:35:53.956Z,95937.06
2017-12-30T12:38:23.424Z,95952.08
2017-12-30T12:40:51.106Z,95953.67
2017-12-30T12:43:18.920Z,95952.81
2017-12-30T12:45:48.418Z,95958.25
2017-12-30T12:48:16.167Z,95951.98
2017-12-30T12:50:45.440Z,95947.38
2017-12-30T12:53:14.255Z,95957.75
2017-12-30T12:55:42.072Z,95958.15
2017-12-30T12:58:09.737Z,95952.35
2017-12-30T13:00:39.185Z,95942.34
2017-12-30T13:03:07.722Z,95944.71
2017-12-30T13:05:35.423Z,95950.64
2017-12-30T13:08:04.718Z,95947.64
2017-12-30T13:10:32.538Z,95957.27
2017-12-30T13:13:00.248Z,95965.23
2017-12-30T13:15:27.888Z,95965.30
2017-12-30T13:17:55.577Z,95951.56
2017-12-30T13:20:23.315Z,95953.63
2017-12-30T13:22:51.109Z,95948.72
2017-12-30T13:25:19.994Z,95945.03
2017-12-30T13:27:47.761Z,95951.31
2017-12-30T13:30:15.737Z,95958.44
2017-12-30T13:50:59.289Z,95974.66
2017-12-30T13:53:26.889Z,95977.16
2017-12-30T13:55:54.513Z,95992.62
2017-12-30T13:58:22.157Z,95987.61
2017-12-30T14:00:49.801Z,95981.34
2017-12-30T14:03:17.395Z,95977.59
2017-12-30T14:05:44.967Z,95982.63
2017-12-30T14:08:15.549Z,95980.98
2017-12-30T14:10:43.189Z,95989.34
2017-12-30T14:13:12.697Z,95991.82
2017-12-30T14:15:40.317Z,95985.59
2017-12-30T14:18:09.089Z,95980.64
2017-12-30T14:20:36.695Z,95972.34
2017-12-30T14:23:04.272Z,95960.27
2017-12-30T14:25:31.890Z,95965.39
2017-12-30T14:27:59.471Z,95964.23
2017-12-30T14:30:28.339Z,95961.78
2017-12-30T14:32:55.928Z,95980.18
2017-12-30T14:35:23.596Z,95978.16
2017-12-30T14:37:52.291Z,95974.98
2017-12-30T14:40:20.614Z,95974.27
2017-12-30T14:42:48.306Z,95973.84
2017-12-30T14:45:15.909Z,95972.22
2017-12-30T14:47:44.497Z,95976.86
2017-12-30T14:50:24.687Z,95983.22
2017-12-30T14:52:52.293Z,95980.51
2017-12-30T14:55:19.887Z,95985.29
2017-12-30T14:57:48.354Z,95989.13
2017-12-30T15:00:15.930Z,95985.83
2017-12-30T15:02:43.564Z,96001.86
2017-12-30T15:05:11.224Z,95998.91
2017-12-30T15:07:38.907Z,96010.33
2017-12-30T15:10:06.528Z,96020.09
2017-12-30T15:12:34.214Z,96031.89
2017-12-30T15:15:01.856Z,96047.80
2017-12-30T15:17:29.460Z,96046.20
2017-12-30T15:19:57.709Z,96056.29
2017-12-30T15:22:25.387Z,96048.77
2017-12-30T15:24:53.644Z,96055.54
2017-12-30T15:27:27.051Z,96059.84
2017-12-30T15:29:54.691Z,96062.33
2017-12-30T15:32:22.286Z,96059.45
2017-12-30T15:34:56.594Z,96080.43
2017-12-30T15:37:37.151Z,96085.36
2017-12-30T15:40:04.785Z,96087.55
2017-12-30T15:42:32.477Z,96089.43
2017-12-30T15:45:00.451Z,96090.42
2017-12-30T15:47:35.179Z,96094.23
2017-12-30T15:50:02.765Z,96106.02
2017-12-30T15:52:30.689Z,96101.02
2017-12-30T15:54:58.287Z,96098.53
2017-12-30T15:57:27.424Z,96091.86
2017-12-30T15:59:55.021Z,96097.46
2017-12-30T16:02:22.712Z,96095.50
2017-12-30T16:04:51.270Z,96089.67
2017-12-30T16:07:18.928Z,96089.75
2017-12-30T16:09:46.551Z,96094.43
2017-12-30T16:12:16.739Z,96082.47
2017-12-30T16:14:44.335Z,96095.94
2017-12-30T16:17:11.972Z,96095.17
2017-12-30T16:19:46.865Z,96109.54
2017-12-30T16:22:17.664Z,96099.20
2017-12-30T16:24:48.641Z,96103.92
2017-12-30T16:27:18.683Z,96098.27
2017-12-30T16:29:46.279Z,96101.30
2017-12-30T16:32:13.856Z,96106.58
2017-12-30T16:34:41.475Z,96111.67
2017-12-30T16:37:09.073Z,96100.84
2017-12-30T16:39:36.692Z,96093.48
2017-12-30T16:42:24.049Z,96084.30
2017-12-30T16:44:51.656Z,96096.59
2017-12-30T16:47:19.211Z,96103.49
2017-12-30T16:49:54.419Z,96109.97
2017-12-30T16:52:22.026Z,96117.59
2017-12-30T16:54:49.617Z,96118.37
2017-12-30T16:57:23.981Z,96125.16
2017-12-30T16:59:51.613Z,96118.83
2017-12-30T17:02:19.183Z,96118.05
2017-12-30T17:04:54.537Z,96129.95
2017-12-30T17:07:22.108Z,96131.28
2017-12-30T17:09:49.672Z,96132.16
2017-12-30T17:12:17.325Z,96147.31
2017-12-30T17:14:44.882Z,96148.52
2017-12-30T17:17:12.504Z,96144.83
2017-12-30T17:19:46.770Z,96142.77
2017-12-30T17:22:14.404Z,96148.67
2017-12-30T17:24:41.978Z,96153.77
2017-12-30T17:27:09.564Z,96145.78
2017-12-30T17:29:37.126Z,96157.59
2017-12-30T17:32:05.256Z,96160.42
2017-12-30T17:34:32.831Z,96165.43
2017-12-30T17:37:00.694Z,96166.67
2017-12-30T17:39:28.314Z,96170.91
2017-12-30T17:41:55.900Z,96167.92
2017-12-30T17:44:23.510Z,96181.43
2017-12-30T17:46:51.080Z,96174.23
2017-12-30T17:49:20.507Z,96183.91
2017-12-30T17:51:48.067Z,96181.52
2017-12-30T17:54:15.669Z,96176.65
2017-12-30T17:56:53.108Z,96188.92
2017-12-30T17:59:20.793Z,96190.24
2017-12-30T18:01:48.388Z,96174.81
2017-12-30T18:04:19.688Z,96172.34
2017-12-30T18:06:47.397Z,96166.11
2017-12-30T18:09:14.962Z,96169.06
2017-12-30T18:11:45.558Z,96181.08
2017-12-30T18:14:18.972Z,96176.58
2017-12-30T18:16:47.244Z,96177.86
2017-12-30T18:19:24.076Z,96177.05
2017-12-30T18:21:52.692Z,96187.55
2017-12-30T18:24:20.266Z,96190.09
2017-12-30T18:26:53.631Z,96193.86
2017-12-30T18:29:31.517Z,96198.22
2017-12-30T18:31:59.263Z,96194.06
2017-12-30T18:34:27.022Z,96205.02
2017-12-30T18:36:55.827Z,96201.25
2017-12-30T18:39:23.476Z,96215.52
2017-12-30T18:41:51.062Z,96212.20
2017-12-30T18:44:18.688Z,96213.05
2017-12-30T18:46:46.303Z,96219.81
2017-12-30T18:49:13.928Z,96219.45
2017-12-30T18:51:41.556Z,96217.30
2017-12-30T18:54:09.159Z,96214.35
2017-12-30T18:56:40.454Z,96222.41
2017-12-30T18:59:08.066Z,96224.07
2017-12-30T19:01:46.148Z,96223.28
2017-12-30T19:04:13.824Z,96221.97
2017-12-30T19:06:41.445Z,96224.88
2017-12-30T19:09:09.036Z,96223.22
2017-12-30T19:11:39.012Z,96234.28
2017-12-30T19:14:06.594Z,96226.44
2017-12-30T19:16:34.240Z,96229.92
2017-12-30T19:19:01.907Z,96232.41
2017-12-30T19:21:29.551Z,96236.23
2017-12-30T19:23:57.156Z,96235.39
2017-12-30T19:26:38.022Z,96241.31
2017-12-30T19:29:05.619Z,96237.09
2017-12-30T19:31:33.267Z,96238.40
2017-12-30T19:34:02.136Z,96246.50
2017-12-30T19:36:29.801Z,96233.88
2017-12-30T19:38:57.503Z,96240.63
2017-12-30T19:41:25.149Z,96233.50
2017-12-30T19:43:52.835Z,96243.19
2017-12-30T19:46:44.161Z,96252.09
2017-12-30T19:49:13.204Z,96243.28
2017-12-30T19:51:40.949Z,96240.75
2017-12-30T19:54:08.688Z,96239.09
2017-12-30T19:56:37.283Z,96245.44
2017-12-30T19:59:05.025Z,96243.77
2017-12-30T20:01:32.825Z,96248.83
2017-12-30T20:04:00.690Z,96245.86
2017-12-30T20:06:28.682Z,96237.81
2017-12-30T20:08:56.428Z,96237.01
2017-12-30T20:11:24.104Z,96239.09
2017-12-30T20:13:51.791Z,96221.01
2017-12-30T20:16:19.505Z,96226.03
2017-12-30T20:18:51.227Z,96228.98
2017-12-30T20:21:19.023Z,96232.81
2017-12-30T20:23:46.759Z,96231.62
2017-12-30T20:26:15.378Z,96234.99
2017-12-30T20:28:43.144Z,96231.66
2017-12-30T20:31:14.696Z,96239.23
2017-12-30T20:33:42.441Z,96237.54
2017-12-30T20:36:10.531Z,96239.22
2017-12-30T20:38:38.285Z,96237.55
2017-12-30T20:41:06.048Z,96228.25
2017-12-30T20:43:33.713Z,96229.89
2017-12-30T20:46:01.383Z,96221.50
2017-12-30T20:48:29.088Z,96215.22
2017-12-30T20:50:56.899Z,96209.75
2017-12-30T20:53:24.630Z,96211.03
2017-12-30T20:55:52.352Z,96213.98
2017-12-30T20:58:30.458Z,96211.02
2017-12-30T21:00:58.146Z,96210.16
2017-12-30T21:03:25.915Z,96209.31
2017-12-30T21:05:53.816Z,96213.93
2017-12-30T21:08:21.573Z,96198.77
2017-12-30T21:10:50.070Z,96197.44
2017-12-30T21:13:17.793Z,96201.29
2017-12-30T21:15:45.594Z,96202.59
2017-12-30T21:18:13.396Z,96197.63
2017-12-30T21:20:41.198Z,96194.74
2017-12-30T21:23:15.449Z,96210.77
2017-12-30T21:25:43.582Z,96199.81
2017-12-30T21:28:17.623Z,96210.03
2017-12-30T21:30:45.406Z,96216.40
2017-12-30T21:33:13.238Z,96194.08
2017-12-30T21:35:40.982Z,96212.69
2017-12-30T21:38:08.720Z,96198.37
2017-12-30T21:40:36.433Z,96194.16
2017-12-30T21:43:04.095Z,96193.30
2017-12-30T21:45:31.718Z,96194.59
2017-12-30T21:47:59.441Z,96200.90
2017-12-30T21:50:27.053Z,96189.08
2017-12-30T21:52:55.170Z,96196.67
2017-12-30T21:55:23.668Z,96196.27
2017-12-30T21:57:54.663Z,96200.06
2017-12-30T22:00:22.298Z,96201.75
2017-12-30T22:02:52.675Z,96211.05
2017-12-30T22:05:20.362Z,96208.55
2017-12-30T22:07:48.029Z,96199.73
2017-12-30T22:10:15.665Z,96203.52
2017-12-30T22:12:43.333Z,96203.94
2017-12-30T22:15:11.319Z,96204.38
2017-12-30T22:17:38.949Z,96198.08
2017-12-30T22:20:06.616Z,96198.51
2017-12-30T22:22:34.260Z,96191.34
2017-12-30T22:25:01.895Z,96204.84
2017-12-30T22:27:29.603Z,96210.31
2017-12-30T22:29:57.240Z,96212.86
2017-12-30T22:32:24.869Z,96211.59
2017-12-30T22:34:52.552Z,96215.84
2017-12-30T22:37:20.137Z,96223.42
2017-12-30T22:39:47.747Z,96220.89
2017-12-30T22:42:15.370Z,96225.95
2017-12-30T22:44:43.862Z,96224.30
2017-12-30T22:47:11.471Z,96219.64
2017-12-30T22:49:41.926Z,96228.09
2017-12-30T22:52:09.528Z,96227.67
2017-12-30T22:54:37.124Z,96229.78
2017-12-30T22:57:04.749Z,96225.56
2017-12-30T22:59:32.329Z,96231.46
2017-12-30T23:01:59.960Z,96226.39
2017-12-30T23:04:27.591Z,96229.36
2017-12-30T23:06:55.175Z,96223.45
2017-12-30T23:09:22.815Z,96219.22
2017-12-30T23:11:50.400Z,96234.02
2017-12-30T23:14:18.050Z,96236.13
2017-12-30T23:16:45.641Z,96234.85
2017-12-30T23:19:13.276Z,96234.84
2017-12-30T23:21:40.919Z,96234.84
2017-12-30T23:24:08.492Z,96253.84
2017-12-30T23:26:36.089Z,96254.27
2017-12-30T23:29:03.712Z,96251.33
2017-12-30T23:31:31.300Z,96261.05
2017-12-30T23:33:58.875Z,96267.38
2017-12-30T23:36:26.599Z,96261.04
2017-12-30T23:38:54.201Z,96257.67
2017-12-30T23:41:21.835Z,96267.39
2017-12-30T23:43:49.431Z,96274.57
2017-12-30T23:46:17.557Z,96263.99
2017-12-30T23:48:45.163Z,96273.31
2017-12-30T23:51:12.781Z,96274.56
2017-12-30T23:53:40.428Z,96270.34
2017-12-30T23:56:08.791Z,96270.80
2017-12-30T23:58:36.387Z,96280.50
